RJFY(METAR)
08/24 02:00
METAR RJFY 231700Z 27008KT 9999 FEW008 SCT010 BKN020 26/23 Q1011 RMK
1ST008 4CU010 5CU020 A2987=
戻る
トップページへ戻る
IMOC Co,.Ltd.